Time;durP1;ratioP1;P1;durP2;ratioP2;P2;SDS_P1;SDS_P2;PMS_P1;PMS_P2;Temp;Humidity;BMP_temperature;BMP_pressure;BME280_temperature;BME280_humidity;BME280_pressure;Samples;Min_cycle;Max_cycle;Signal;HPM_P1;HPM_P2
2021/04/05 00:01:19;;;;;;;4.10;2.50;;;6.50;50.40;;;;;;4885722;29;20065;-81
2021/04/05 00:03:45;;;;;;;5.47;2.67;;;6.40;50.60;;;;;;4881005;29;20032;-81
2021/04/05 00:06:12;;;;;;;7.17;2.47;;;6.40;50.80;;;;;;4898128;29;20035;-81
2021/04/05 00:08:37;;;;;;;6.07;2.47;;;6.50;50.80;;;;;;4897668;29;20123;-81
2021/04/05 00:11:04;;;;;;;6.47;2.20;;;6.50;51.00;;;;;;4880892;29;20060;-81
2021/04/05 00:13:36;;;;;;;5.87;2.70;;;6.50;51.10;;;;;;4873159;29;20036;-82
2021/04/05 00:16:02;;;;;;;8.60;2.47;;;6.40;51.40;;;;;;4880418;29;20064;-82
2021/04/05 00:18:28;;;;;;;4.43;2.70;;;6.40;51.20;;;;;;4897013;29;20029;-82
2021/04/05 00:21:06;;;;;;;6.30;3.00;;;6.30;51.50;;;;;;4880211;29;20043;-81
2021/04/05 00:23:32;;;;;;;6.07;2.60;;;6.20;51.50;;;;;;4897095;29;20032;-82
2021/04/05 00:25:57;;;;;;;5.77;2.53;;;6.20;51.50;;;;;;4880362;29;20037;-82
2021/04/05 00:28:23;;;;;;;5.80;2.70;;;6.20;51.40;;;;;;4897041;29;20044;-82
2021/04/05 00:30:49;;;;;;;7.00;3.20;;;6.20;51.40;;;;;;4880547;29;20492;-82
2021/04/05 00:33:14;;;;;;;3.67;2.53;;;6.30;51.40;;;;;;4878805;29;20036;-82
2021/04/05 00:35:41;;;;;;;7.13;2.60;;;6.30;51.20;;;;;;4896627;29;20091;-82
2021/04/05 00:38:09;;;;;;;8.83;3.13;;;6.30;51.20;;;;;;4883659;29;20093;-82
2021/04/05 00:40:36;;;;;;;5.03;2.53;;;6.30;51.50;;;;;;4891456;29;20033;-82
2021/04/05 00:43:08;;;;;;;8.13;2.80;;;6.20;51.60;;;;;;4901790;29;20511;-82
2021/04/05 00:45:34;;;;;;;5.13;2.80;;;6.30;51.80;;;;;;4880875;29;20464;-83
2021/04/05 00:48:01;;;;;;;5.93;2.30;;;6.30;51.60;;;;;;4896957;29;20127;-82
2021/04/05 00:50:33;;;;;;;9.63;2.30;;;6.20;51.50;;;;;;4880105;29;20401;-82
2021/04/05 00:53:02;;;;;;;4.00;1.90;;;6.30;51.70;;;;;;4896943;29;20024;-82
2021/04/05 00:55:29;;;;;;;5.37;1.70;;;6.30;51.60;;;;;;4879489;29;20578;-82
2021/04/05 00:57:56;;;;;;;5.53;3.30;;;6.30;51.50;;;;;;4879969;29;20502;-82
2021/04/05 01:00:49;;;;;;;7.73;2.27;;;6.30;51.50;;;;;;4879420;29;20492;-82
2021/04/05 01:03:19;;;;;;;4.40;1.83;;;6.30;51.60;;;;;;4876420;29;20037;-82
2021/04/05 01:05:47;;;;;;;3.67;1.97;;;6.30;51.60;;;;;;4880289;29;20033;-82
2021/04/05 01:08:16;;;;;;;2.97;1.70;;;6.20;51.60;;;;;;4880114;29;20032;-83
2021/04/05 01:10:43;;;;;;;5.97;2.20;;;6.20;51.70;;;;;;4887159;29;20036;-83
2021/04/05 01:13:09;;;;;;;6.40;2.20;;;6.20;51.80;;;;;;4894228;29;20396;-83
2021/04/05 01:15:35;;;;;;;8.17;3.27;;;6.20;51.80;;;;;;4879817;29;20028;-83
2021/04/05 01:18:00;;;;;;;4.80;2.90;;;6.10;52.00;;;;;;4879523;29;20080;-83
2021/04/05 01:20:27;;;;;;;4.57;2.07;;;6.10;52.20;;;;;;4896657;29;20028;-83
2021/04/05 01:22:53;;;;;;;10.33;2.57;;;6.10;52.10;;;;;;4880070;29;20044;-83
2021/04/05 01:25:21;;;;;;;5.43;2.23;;;6.10;52.00;;;;;;4879697;29;20497;-83
2021/04/05 01:27:48;;;;;;;4.50;2.60;;;6.10;52.10;;;;;;4896528;29;20024;-83
2021/04/05 01:30:32;;;;;;;7.07;2.87;;;6.00;52.30;;;;;;4879977;29;20108;-83
2021/04/05 01:33:11;;;;;;;6.10;2.43;;;5.90;52.60;;;;;;4894212;29;20024;-83
2021/04/05 01:35:57;;;;;;;4.13;2.20;;;5.80;52.80;;;;;;4883506;29;20042;-83
2021/04/05 01:38:25;;;;;;;6.37;2.33;;;5.80;52.70;;;;;;4883172;29;20028;-83
2021/04/05 01:41:00;;;;;;;7.00;2.43;;;5.80;52.80;;;;;;4900013;29;20028;-83
2021/04/05 01:43:26;;;;;;;10.80;2.67;;;5.80;52.90;;;;;;4883400;29;20039;-83
2021/04/05 01:45:55;;;;;;;6.83;2.10;;;5.80;52.90;;;;;;4883864;29;20067;-83
2021/04/05 01:48:23;;;;;;;5.70;2.30;;;5.80;52.90;;;;;;4902474;29;20103;-83
2021/04/05 01:50:49;;;;;;;8.27;2.90;;;5.80;53.00;;;;;;4911744;29;20138;-83
2021/04/05 01:53:18;;;;;;;5.80;2.80;;;5.80;53.10;;;;;;4913435;29;20043;-82
2021/04/05 01:55:45;;;;;;;4.63;2.17;;;5.80;53.10;;;;;;4919283;29;20041;-82
2021/04/05 01:58:10;;;;;;;5.77;2.13;;;5.90;52.80;;;;;;4883945;29;20131;-83
2021/04/05 02:00:39;;;;;;;6.20;2.30;;;5.80;52.70;;;;;;4884467;29;20172;-84
2021/04/05 02:03:10;;;;;;;4.33;2.50;;;5.80;52.90;;;;;;4884195;29;20080;-83
2021/04/05 02:05:38;;;;;;;5.83;2.80;;;5.70;53.10;;;;;;4883359;29;20067;-83
2021/04/05 02:08:07;;;;;;;6.90;2.83;;;5.70;53.20;;;;;;4882907;29;20044;-83
2021/04/05 02:10:34;;;;;;;4.37;2.03;;;5.70;53.20;;;;;;4899917;29;20080;-82
2021/04/05 02:13:00;;;;;;;4.80;2.23;;;5.70;53.10;;;;;;4898340;29;20111;-82
2021/04/05 02:15:27;;;;;;;6.77;2.70;;;5.80;53.00;;;;;;4882696;29;20041;-82
2021/04/05 02:17:53;;;;;;;6.93;2.60;;;5.70;52.90;;;;;;4898952;29;20035;-82
2021/04/05 02:20:20;;;;;;;6.93;2.67;;;5.70;52.90;;;;;;4899451;29;20033;-82
2021/04/05 02:22:49;;;;;;;5.23;2.70;;;5.60;53.10;;;;;;4882701;29;20035;-81
2021/04/05 02:25:21;;;;;;;4.03;2.10;;;5.70;53.20;;;;;;4893263;29;20322;-83
2021/04/05 02:27:49;;;;;;;4.55;2.33;;;5.70;53.10;;;;;;4882465;29;20068;-82
2021/04/05 02:30:22;;;;;;;3.80;2.07;;;5.70;52.90;;;;;;4882348;29;20064;-83
2021/04/05 02:33:04;;;;;;;6.60;1.87;;;5.70;53.10;;;;;;4882915;29;20028;-82
2021/04/05 02:35:32;;;;;;;11.90;2.83;;;5.70;53.20;;;;;;4881989;29;20033;-83
2021/04/05 02:38:00;;;;;;;4.93;2.20;;;5.70;52.90;;;;;;4882276;29;20069;-83
2021/04/05 02:40:27;;;;;;;7.10;3.67;;;5.60;53.10;;;;;;4882554;29;20057;-83
2021/04/05 02:42:55;;;;;;;8.10;4.50;;;5.60;53.20;;;;;;4881717;29;20037;-83
2021/04/05 02:45:24;;;;;;;9.90;3.83;;;5.60;53.30;;;;;;4875091;29;20180;-83
2021/04/05 02:47:53;;;;;;;8.87;3.80;;;5.60;53.30;;;;;;4899164;29;20397;-83
2021/04/05 02:50:21;;;;;;;9.37;4.37;;;5.50;53.50;;;;;;4882406;29;20040;-83
2021/04/05 02:52:49;;;;;;;8.43;3.73;;;5.50;53.70;;;;;;4880388;29;20035;-83
2021/04/05 02:55:15;;;;;;;5.33;3.30;;;5.50;53.70;;;;;;4881846;29;20033;-83
2021/04/05 02:57:43;;;;;;;9.00;4.07;;;5.60;53.80;;;;;;4881632;29;20127;-83
2021/04/05 03:00:10;;;;;;;11.17;3.80;;;5.60;53.60;;;;;;4882094;29;20039;-84
2021/04/05 03:02:38;;;;;;;10.27;4.03;;;5.70;53.50;;;;;;4881743;29;20051;-83
2021/04/05 03:05:08;;;;;;;8.37;3.30;;;5.70;53.20;;;;;;4882292;29;20041;-83
2021/04/05 03:07:35;;;;;;;8.83;3.67;;;5.80;53.20;;;;;;4899574;29;20576;-83
2021/04/05 03:10:03;;;;;;;11.33;4.43;;;5.70;53.50;;;;;;4894543;29;20140;-84
2021/04/05 03:12:29;;;;;;;6.23;3.60;;;5.70;53.10;;;;;;4897435;29;20037;-84
2021/04/05 03:14:57;;;;;;;9.17;3.90;;;5.50;53.30;;;;;;4878265;29;20037;-83
2021/04/05 03:17:23;;;;;;;8.87;3.87;;;5.50;53.50;;;;;;4879190;29;20438;-83
2021/04/05 03:19:49;;;;;;;7.73;4.20;;;5.50;53.60;;;;;;4898896;29;20036;-83
2021/04/05 03:22:18;;;;;;;8.70;4.17;;;5.40;53.70;;;;;;4882084;29;20365;-83
2021/04/05 03:24:44;;;;;;;8.77;4.67;;;5.30;53.90;;;;;;4897423;29;20041;-84
2021/04/05 03:27:10;;;;;;;8.10;3.63;;;5.30;54.20;;;;;;4898650;29;20095;-84
2021/04/05 03:29:40;;;;;;;9.37;4.17;;;5.20;54.20;;;;;;4881610;29;20068;-83
2021/04/05 03:32:07;;;;;;;7.17;3.83;;;5.30;54.40;;;;;;4881941;29;20043;-83
2021/04/05 03:34:36;;;;;;;7.97;4.20;;;5.30;54.30;;;;;;4881085;29;20064;-84
2021/04/05 03:37:08;;;;;;;6.20;3.37;;;5.30;54.40;;;;;;4874249;29;20131;-83
2021/04/05 03:39:35;;;;;;;7.22;4.10;;;5.20;55.20;;;;;;4881469;29;20540;-83
2021/04/05 03:42:25;;;;;;;8.10;4.43;;;5.20;55.30;;;;;;4898289;29;20356;-83
2021/04/05 03:44:55;;;;;;;7.37;3.27;;;5.00;55.00;;;;;;4898281;29;20024;-83
2021/04/05 03:47:29;;;;;;;6.67;3.20;;;5.10;55.00;;;;;;4897164;29;20143;-84
2021/04/05 03:50:03;;;;;;;8.70;3.20;;;5.10;55.00;;;;;;4881541;29;20092;-84
2021/04/05 03:52:34;;;;;;;10.30;3.93;;;5.10;54.90;;;;;;4897822;29;20025;-84
2021/04/05 03:55:05;;;;;;;6.87;3.17;;;5.10;54.80;;;;;;4881421;29;20493;-83
2021/04/05 03:57:34;;;;;;;8.67;3.80;;;5.10;54.70;;;;;;4896338;29;20032;-83
2021/04/05 04:00:07;;;;;;;7.93;3.40;;;5.10;54.70;;;;;;4873296;29;20028;-83
2021/04/05 04:02:40;;;;;;;4.97;2.77;;;5.10;54.90;;;;;;4892385;29;20037;-83
2021/04/05 04:05:15;;;;;;;6.57;2.80;;;5.10;54.80;;;;;;4875443;29;20036;-83
2021/04/05 04:10:12;;;;;;;7.77;3.87;;;5.20;54.80;;;;;;4897557;29;20020;-83
2021/04/05 04:12:44;;;;;;;5.37;2.60;;;5.10;54.80;;;;;;4897462;29;20032;-83
2021/04/05 04:15:12;;;;;;;4.53;2.53;;;5.10;54.90;;;;;;4881296;29;20095;-83
2021/04/05 04:17:38;;;;;;;7.90;2.63;;;5.10;54.70;;;;;;4889252;29;20040;-82
2021/04/05 04:20:10;;;;;;;4.43;2.23;;;5.10;54.50;;;;;;4880381;29;20055;-83
2021/04/05 04:22:37;;;;;;;5.22;2.35;;;5.10;54.70;;;;;;4880806;29;20032;-83
2021/04/05 04:25:04;;;;;;;6.73;2.57;;;5.10;54.80;;;;;;4880699;29;20039;-83
2021/04/05 04:27:30;;;;;;;4.00;2.30;;;5.10;54.80;;;;;;4897058;29;20043;-84
2021/04/05 04:29:57;;;;;;;4.57;2.27;;;5.10;54.50;;;;;;4880630;29;20041;-83
2021/04/05 04:32:24;;;;;;;5.97;2.20;;;5.10;54.40;;;;;;4880898;29;20064;-83
2021/04/05 04:34:51;;;;;;;4.40;2.70;;;5.10;54.40;;;;;;4880430;29;20382;-83
2021/04/05 04:37:17;;;;;;;5.57;2.73;;;5.10;54.20;;;;;;4880408;29;20032;-83
2021/04/05 04:39:43;;;;;;;6.70;2.97;;;5.10;54.30;;;;;;4876792;29;20073;-84
2021/04/05 04:42:10;;;;;;;6.17;3.33;;;5.10;54.30;;;;;;4878266;29;20032;-83
2021/04/05 04:44:37;;;;;;;7.33;2.83;;;5.10;54.30;;;;;;4892874;29;20037;-83
2021/04/05 04:47:03;;;;;;;9.90;3.60;;;5.10;54.40;;;;;;4878162;29;20033;-83
2021/04/05 04:49:29;;;;;;;7.43;3.40;;;5.10;54.40;;;;;;4878210;29;20072;-83
2021/04/05 04:51:54;;;;;;;7.67;3.00;;;5.00;54.50;;;;;;4877160;29;20076;-83
2021/04/05 04:54:21;;;;;;;7.63;3.43;;;5.00;54.80;;;;;;4876977;29;20041;-83
2021/04/05 04:56:47;;;;;;;7.03;3.47;;;5.00;54.80;;;;;;4876936;29;20135;-83
2021/04/05 04:59:12;;;;;;;5.93;3.00;;;4.90;54.70;;;;;;4876945;29;20115;-83
2021/04/05 05:01:44;;;;;;;8.90;3.23;;;5.00;54.90;;;;;;4869397;29;20076;-83
2021/04/05 05:04:19;;;;;;;3.30;2.57;;;5.00;54.90;;;;;;4873256;29;20124;-83
2021/04/05 05:06:47;;;;;;;7.63;3.27;;;5.00;54.80;;;;;;4879483;29;20040;-84
2021/04/05 05:09:14;;;;;;;8.43;4.60;;;4.90;55.00;;;;;;4898336;29;20043;-83
2021/04/05 05:11:40;;;;;;;8.00;3.67;;;5.00;55.10;;;;;;4883221;29;20068;-84
2021/04/05 05:14:06;;;;;;;9.50;4.10;;;5.00;55.20;;;;;;4883021;29;20048;-83
2021/04/05 05:16:33;;;;;;;12.83;3.73;;;5.00;55.20;;;;;;4884317;29;20785;-84
2021/04/05 05:19:00;;;;;;;10.20;4.00;;;5.10;55.10;;;;;;4883330;29;20025;-84
2021/04/05 05:21:50;;;;;;;7.67;3.97;;;5.00;54.90;;;;;;4883223;29;20499;-84
2021/04/05 05:24:20;;;;;;;9.37;4.97;;;5.00;55.00;;;;;;4883008;29;20389;-84
2021/04/05 05:26:49;;;;;;;6.77;4.30;;;5.10;54.90;;;;;;4882883;29;20059;-81
2021/04/05 05:29:18;;;;;;;8.97;4.80;;;5.10;55.00;;;;;;4882755;29;20037;-82
2021/04/05 05:31:44;;;;;;;12.30;5.40;;;5.00;55.00;;;;;;4883143;29;20029;-82
2021/04/05 05:34:13;;;;;;;8.33;4.70;;;5.00;55.20;;;;;;4898653;29;20033;-82
2021/04/05 05:36:40;;;;;;;5.73;4.17;;;5.00;55.50;;;;;;4876739;29;20029;-83
2021/04/05 05:39:06;;;;;;;11.07;4.70;;;5.00;55.60;;;;;;4882759;29;20132;-83
2021/04/05 05:42:11;;;;;;;8.13;5.10;;;5.00;55.50;;;;;;4883202;29;20033;-83
2021/04/05 05:44:52;;;;;;;13.43;5.73;;;5.00;55.70;;;;;;4875590;29;20101;-84
2021/04/05 05:47:46;;;;;;;14.30;6.30;;;5.10;55.60;;;;;;4883108;29;20444;-84
2021/04/05 05:50:31;;;;;;;12.93;4.87;;;5.20;55.80;;;;;;4892717;29;20081;-84
2021/04/05 05:53:08;;;;;;;10.93;4.97;;;5.30;55.10;;;;;;4864474;29;20124;-83
2021/04/05 05:56:09;;;;;;;9.70;4.70;;;5.30;54.90;;;;;;4880963;29;20108;-84
2021/04/05 05:58:38;;;;;;;12.43;6.10;;;5.40;54.90;;;;;;4895020;29;20033;-83
2021/04/05 06:01:22;;;;;;;9.33;5.03;;;5.40;54.50;;;;;;4895913;29;20068;-84
2021/04/05 06:03:59;;;;;;;7.23;3.90;;;5.50;54.60;;;;;;4898380;29;20040;-84
2021/04/05 06:06:49;;;;;;;8.53;4.20;;;5.50;54.60;;;;;;4895412;29;20041;-83
2021/04/05 06:09:31;;;;;;;13.63;5.30;;;5.60;54.50;;;;;;4878666;29;20488;-84
2021/04/05 06:12:26;;;;;;;5.25;3.67;;;5.60;54.30;;;;;;4884283;29;20021;-84
2021/04/05 06:15:16;;;;;;;8.30;3.50;;;5.60;54.20;;;;;;4884279;29;20029;-83
2021/04/05 06:18:11;;;;;;;6.10;3.10;;;5.70;54.10;;;;;;4893555;29;20066;-84
2021/04/05 06:20:48;;;;;;;7.83;3.20;;;5.70;53.80;;;;;;4879374;29;20033;-84
2021/04/05 06:23:35;;;;;;;8.33;3.83;;;5.80;53.90;;;;;;4881280;29;20113;-82
2021/04/05 06:26:08;;;;;;;6.80;4.00;;;5.90;53.90;;;;;;4881294;29;20504;-83
2021/04/05 06:29:19;;;;;;;10.63;3.50;;;5.80;53.50;;;;;;4881212;29;20029;-82
2021/04/05 06:32:24;;;;;;;9.23;5.17;;;5.80;53.50;;;;;;4855862;29;20041;-83
2021/04/05 06:35:18;;;;;;;9.73;4.23;;;6.00;53.70;;;;;;4890654;29;20060;-83
2021/04/05 06:37:46;;;;;;;5.90;3.90;;;6.10;53.90;;;;;;4884004;29;20056;-83
2021/04/05 06:40:19;;;;;;;6.17;3.57;;;6.30;53.40;;;;;;4879182;29;20041;-82
2021/04/05 06:42:48;;;;;;;;;;;6.30;53.00;;;;;;4880011;29;20525;-83
2021/04/05 06:45:27;;;;;;;8.33;4.23;;;6.30;52.90;;;;;;4880297;29;19911;-83
2021/04/05 06:48:02;;;;;;;7.13;3.60;;;6.30;52.90;;;;;;4894492;29;20366;-84
2021/04/05 06:50:57;;;;;;;7.03;3.10;;;6.30;52.90;;;;;;4891992;29;20044;-83
2021/04/05 06:53:39;;;;;;;6.67;2.50;;;6.30;52.80;;;;;;4894930;29;20096;-84
2021/04/05 06:56:17;;;;;;;5.37;2.73;;;6.30;52.40;;;;;;4894789;29;20084;-84
2021/04/05 06:58:54;;;;;;;7.47;2.90;;;6.30;52.30;;;;;;4880487;29;20109;-84
2021/04/05 07:01:32;;;;;;;6.20;2.57;;;6.30;52.00;;;;;;4869121;29;20036;-85
2021/04/05 07:04:14;;;;;;;6.97;2.90;;;6.40;51.90;;;;;;4876377;29;20040;-85
2021/04/05 07:06:51;;;;;;;6.43;2.90;;;6.70;52.20;;;;;;4889213;29;20033;-85
2021/04/05 07:09:45;;;;;;;4.83;2.63;;;6.80;51.50;;;;;;4893865;29;20053;-84
2021/04/05 07:12:52;;;;;;;4.37;2.47;;;6.80;51.10;;;;;;4894761;29;20041;-83
2021/04/05 07:15:23;;;;;;;13.13;3.57;;;6.90;51.20;;;;;;4894479;29;20508;-83
2021/04/05 07:18:15;;;;;;;7.30;3.77;;;7.00;51.20;;;;;;4880320;29;20021;-83
2021/04/05 07:21:08;;;;;;;7.50;3.53;;;7.00;51.10;;;;;;4878888;29;20060;-83
2021/04/05 07:23:55;;;;;;;6.70;2.97;;;7.10;51.10;;;;;;4881499;29;20025;-84
2021/04/05 07:26:25;;;;;;;8.37;3.27;;;7.20;50.60;;;;;;4873984;29;20520;-84
2021/04/05 07:28:51;;;;;;;6.27;2.60;;;7.20;50.50;;;;;;4878186;29;20033;-84
2021/04/05 07:31:51;;;;;;;6.57;2.80;;;7.30;50.20;;;;;;4894408;29;20036;-84
2021/04/05 07:34:37;;;;;;;6.47;2.70;;;7.40;49.90;;;;;;4878781;29;20028;-84
2021/04/05 07:37:21;;;;;;;4.50;2.47;;;7.60;49.70;;;;;;4878677;29;20033;-84
2021/04/05 07:39:52;;;;;;;6.57;2.20;;;7.70;48.80;;;;;;4887208;29;20041;-84
2021/04/05 07:42:25;;;;;;;3.90;2.27;;;7.80;49.00;;;;;;4894332;29;20040;-84
2021/04/05 07:45:25;;;;;;;6.93;2.90;;;7.90;48.50;;;;;;4876315;29;20065;-84
2021/04/05 07:47:58;;;;;;;6.40;2.33;;;8.10;48.00;;;;;;4867819;29;20520;-84
2021/04/05 07:50:46;;;;;;;5.75;2.03;;;8.10;47.40;;;;;;4879436;29;20033;-83
2021/04/05 07:53:25;;;;;;;4.30;2.20;;;8.20;47.60;;;;;;4878816;29;20522;-82
2021/04/05 07:55:56;;;;;;;5.10;2.10;;;8.50;47.40;;;;;;4870886;29;20021;-82
2021/04/05 07:58:35;;;;;;;5.10;2.57;;;8.60;47.00;;;;;;4887881;29;20033;-82
2021/04/05 08:01:12;;;;;;;6.23;2.17;;;8.70;46.80;;;;;;4894086;29;20430;-82
2021/04/05 08:03:43;;;;;;;4.20;2.03;;;9.00;46.80;;;;;;4878279;29;20073;-83
2021/04/05 08:06:13;;;;;;;5.80;1.90;;;9.20;46.10;;;;;;4893736;29;20041;-83
2021/04/05 08:08:51;;;;;;;4.37;1.63;;;9.30;45.60;;;;;;4879684;29;20029;-83
2021/04/05 08:11:52;;;;;;;4.30;2.03;;;9.50;45.20;;;;;;4893953;29;20028;-83
2021/04/05 08:14:30;;;;;;;4.40;1.50;;;9.80;45.00;;;;;;4893340;29;20037;-83
2021/04/05 08:17:01;;;;;;;5.80;1.53;;;10.00;44.70;;;;;;4871945;29;20483;-83
2021/04/05 08:20:19;;;;;;;6.23;2.13;;;10.10;44.30;;;;;;4865759;29;20486;-83
2021/04/05 08:22:58;;;;;;;2.43;1.43;;;10.20;43.60;;;;;;4872944;29;20045;-83
2021/04/05 08:25:41;;;;;;;3.50;1.80;;;10.50;43.40;;;;;;4875142;29;20121;-83
2021/04/05 08:28:19;;;;;;;3.47;1.40;;;10.70;43.10;;;;;;4877894;29;20033;-83
2021/04/05 08:30:54;;;;;;;6.47;1.80;;;10.80;42.40;;;;;;4874802;29;20112;-83
2021/04/05 08:33:57;;;;;;;5.20;2.37;;;11.00;42.60;;;;;;4877401;29;20036;-83
2021/04/05 08:36:41;;;;;;;4.00;1.85;;;11.20;41.60;;;;;;4875265;29;20556;-83
2021/04/05 08:39:17;;;;;;;3.60;2.03;;;11.20;41.30;;;;;;4883717;29;20488;-83
2021/04/05 08:42:09;;;;;;;3.93;1.60;;;11.10;41.00;;;;;;4877703;29;20017;-83
2021/04/05 08:44:52;;;;;;;3.83;2.20;;;11.10;40.20;;;;;;4879512;29;20044;-83
2021/04/05 08:47:29;;;;;;;6.03;2.00;;;11.20;40.70;;;;;;4875265;29;20119;-83
2021/04/05 08:50:00;;;;;;;4.67;1.60;;;11.40;40.00;;;;;;4878483;29;20032;-83
2021/04/05 08:52:29;;;;;;;4.23;1.73;;;11.50;39.90;;;;;;4876554;29;20060;-83
2021/04/05 08:54:55;;;;;;;3.27;1.47;;;11.80;39.20;;;;;;4878300;29;20040;-83
2021/04/05 08:57:24;;;;;;;3.00;1.50;;;11.70;38.50;;;;;;4893517;29;21529;-83
2021/04/05 08:59:54;;;;;;;5.00;1.70;;;11.70;38.30;;;;;;4893842;29;20064;-83
2021/04/05 09:02:24;;;;;;;4.67;1.37;;;11.90;38.40;;;;;;4894054;29;20028;-83
2021/04/05 09:04:53;;;;;;;3.70;1.50;;;12.00;38.40;;;;;;4893224;29;20389;-83
2021/04/05 09:07:34;;;;;;;4.53;1.90;;;12.20;37.80;;;;;;4877796;29;20502;-83
2021/04/05 09:10:08;;;;;;;4.37;1.63;;;12.30;37.70;;;;;;4893542;29;20119;-83
2021/04/05 09:12:35;;;;;;;2.60;1.30;;;12.40;37.50;;;;;;4876492;29;20033;-83
2021/04/05 09:15:26;;;;;;;2.70;1.70;;;12.60;37.60;;;;;;4877028;29;20119;-82
2021/04/05 09:18:10;;;;;;;2.33;1.40;;;12.90;37.40;;;;;;4892094;29;20036;-82
2021/04/05 09:20:45;;;;;;;3.67;1.47;;;13.10;37.10;;;;;;4874856;29;20035;-82
2021/04/05 09:23:33;;;;;;;4.53;1.23;;;13.30;36.80;;;;;;4889451;29;20024;-83
2021/04/05 09:26:30;;;;;;;3.73;1.53;;;13.30;36.40;;;;;;4893747;29;20033;-83
2021/04/05 09:29:20;;;;;;;3.07;1.00;;;13.30;35.40;;;;;;4877796;29;20064;-83
2021/04/05 09:32:03;;;;;;;6.20;1.70;;;13.40;35.50;;;;;;4895352;29;20441;-83
2021/04/05 09:34:57;;;;;;;4.07;1.63;;;13.60;35.50;;;;;;4877132;29;20036;-83
2021/04/05 09:37:39;;;;;;;4.20;1.70;;;13.80;35.90;;;;;;4888091;29;20532;-83
2021/04/05 09:40:29;;;;;;;1.80;1.20;;;14.00;35.90;;;;;;4891401;29;20113;-83
2021/04/05 09:43:45;;;;;;;2.97;1.43;;;14.20;34.50;;;;;;4890293;29;20507;-83
2021/04/05 09:46:26;;;;;;;3.80;1.30;;;14.00;33.60;;;;;;4857875;29;20045;-83
2021/04/05 09:49:33;;;;;;;5.27;1.33;;;13.90;33.20;;;;;;4888712;29;20033;-83
2021/04/05 09:52:20;;;;;;;3.70;1.50;;;13.90;33.20;;;;;;4859908;29;20068;-83
2021/04/05 09:54:50;;;;;;;3.60;1.37;;;14.00;33.10;;;;;;4893948;29;20032;-83
2021/04/05 09:57:38;;;;;;;2.13;1.30;;;14.10;33.70;;;;;;4892021;29;20039;-83
2021/04/05 10:00:12;;;;;;;2.97;1.40;;;14.20;33.30;;;;;;4877693;29;20059;-83
2021/04/05 10:02:51;;;;;;;2.30;1.20;;;14.20;33.60;;;;;;4876690;29;20031;-83
2021/04/05 10:05:23;;;;;;;4.10;1.00;;;14.20;33.20;;;;;;4893100;29;20226;-83
2021/04/05 10:07:50;;;;;;;2.88;1.38;;;14.20;33.40;;;;;;4893858;29;20449;-83
2021/04/05 10:10:17;;;;;;;2.13;1.10;;;14.40;33.50;;;;;;4878707;29;20488;-83
2021/04/05 10:12:45;;;;;;;4.40;1.20;;;14.60;33.40;;;;;;4877303;29;20064;-83
2021/04/05 10:15:14;;;;;;;2.67;1.40;;;14.60;33.10;;;;;;4877894;29;20040;-83
2021/04/05 10:17:46;;;;;;;6.00;1.37;;;14.60;33.20;;;;;;4891450;29;20044;-83
2021/04/05 10:20:13;;;;;;;4.50;1.25;;;14.80;33.20;;;;;;4893722;29;20172;-83
2021/04/05 10:22:43;;;;;;;8.50;2.13;;;14.80;33.00;;;;;;4877280;29;20025;-83
2021/04/05 10:25:10;;;;;;;3.90;1.47;;;15.00;32.90;;;;;;4889477;29;20434;-83
2021/04/05 10:27:36;;;;;;;3.47;1.50;;;15.10;32.60;;;;;;4892428;29;20033;-83
2021/04/05 10:30:04;;;;;;;2.37;1.10;;;15.20;32.60;;;;;;4895472;29;20512;-83
2021/04/05 10:32:30;;;;;;;4.40;1.17;;;15.20;32.20;;;;;;4891400;29;20084;-84
2021/04/05 10:35:01;;;;;;;2.27;1.13;;;15.40;32.50;;;;;;4895661;29;20059;-85
2021/04/05 10:37:35;;;;;;;5.00;1.43;;;15.60;32.30;;;;;;4898310;29;20033;-85
2021/04/05 10:40:02;;;;;;;4.50;1.05;;;15.70;31.40;;;;;;4894964;29;20032;-85
2021/04/05 10:42:32;;;;;;;2.90;0.93;;;15.80;31.20;;;;;;4880011;29;20056;-85
2021/04/05 10:45:10;;;;;;;2.53;1.20;;;15.90;31.40;;;;;;4895945;29;20056;-85
2021/04/05 10:48:27;;;;;;;2.55;0.70;;;16.00;31.00;;;;;;4875779;29;20429;-85
2021/04/05 10:50:57;;;;;;;1.90;0.97;;;16.00;30.70;;;;;;4824477;29;20108;-85
2021/04/05 10:53:27;;;;;;;1.98;1.10;;;16.10;31.00;;;;;;4821356;29;20090;-85
2021/04/05 10:56:06;;;;;;;3.15;1.40;;;16.30;30.80;;;;;;4863285;29;20122;-85
2021/04/05 10:58:49;;;;;;;2.13;0.90;;;16.40;30.70;;;;;;4887682;29;20033;-85
2021/04/05 11:01:16;;;;;;;2.55;1.45;;;16.40;30.40;;;;;;4887906;29;20032;-85
2021/04/05 11:03:48;;;;;;;5.68;1.52;;;16.50;30.50;;;;;;4890581;29;20477;-85
2021/04/05 11:06:16;;;;;;;3.35;1.42;;;16.60;30.20;;;;;;4894058;29;20111;-85
2021/04/05 11:08:47;;;;;;;2.65;1.10;;;16.60;30.10;;;;;;4875392;29;20043;-85
2021/04/05 11:11:15;;;;;;;2.25;0.88;;;16.60;30.10;;;;;;4875576;29;20032;-85
2021/04/05 11:13:47;;;;;;;5.55;0.95;;;16.70;30.00;;;;;;4893323;29;20457;-85
2021/04/05 11:16:16;;;;;;;2.22;0.98;;;16.80;30.20;;;;;;4897293;29;20130;-84
2021/04/05 11:18:54;;;;;;;3.95;1.02;;;16.90;30.00;;;;;;4895806;29;20071;-84
2021/04/05 11:21:26;;;;;;;4.05;1.10;;;17.00;29.70;;;;;;4880500;29;20370;-85
2021/04/05 11:23:56;;;;;;;4.82;1.50;;;17.00;29.70;;;;;;4875962;29;20032;-85
2021/04/05 11:26:26;;;;;;;6.25;1.00;;;17.10;29.70;;;;;;4875735;29;20445;-84
2021/04/05 11:28:59;;;;;;;2.05;0.80;;;17.10;29.50;;;;;;4876626;29;20036;-84
2021/04/05 11:31:27;;;;;;;2.85;1.00;;;17.10;29.00;;;;;;4891420;29;20029;-84
2021/04/05 11:33:57;;;;;;;1.42;0.60;;;17.00;29.10;;;;;;4877835;29;20052;-84
2021/04/05 11:36:32;;;;;;;4.40;1.38;;;17.10;29.00;;;;;;4889001;29;20032;-85
2021/04/05 11:39:00;;;;;;;7.38;1.17;;;17.10;29.00;;;;;;4875063;29;20485;-84
2021/04/05 11:41:28;;;;;;;2.70;1.05;;;17.10;29.10;;;;;;4874890;29;20025;-84
2021/04/05 11:44:01;;;;;;;2.17;1.00;;;17.10;28.80;;;;;;4872685;29;20032;-84
2021/04/05 11:46:34;;;;;;;4.63;0.80;;;17.00;28.60;;;;;;4893441;29;20039;-85
2021/04/05 11:49:01;;;;;;;1.42;0.70;;;17.00;28.40;;;;;;4891902;29;20029;-85
2021/04/05 11:51:32;;;;;;;4.30;0.90;;;17.00;28.40;;;;;;4891088;29;20040;-85
2021/04/05 11:54:02;;;;;;;5.75;1.30;;;17.00;28.50;;;;;;4895256;29;20036;-84
2021/04/05 11:56:31;;;;;;;6.85;1.42;;;17.00;28.50;;;;;;4881702;29;20486;-84
2021/04/05 11:59:20;;;;;;;2.65;1.00;;;17.10;28.40;;;;;;4894329;29;20029;-84
2021/04/05 12:02:02;;;;;;;8.80;1.30;;;17.20;28.20;;;;;;4873792;29;20497;-84
2021/04/05 12:04:37;;;;;;;3.28;0.95;;;17.30;28.20;;;;;;4883413;29;20067;-84
2021/04/05 12:07:15;;;;;;;5.68;1.60;;;17.30;28.10;;;;;;4878106;29;20040;-84
2021/04/05 12:09:50;;;;;;;4.13;1.63;;;17.30;28.60;;;;;;4881261;29;20100;-85
2021/04/05 12:12:21;;;;;;;4.25;1.38;;;17.40;28.20;;;;;;4879697;29;20060;-85
2021/04/05 12:14:53;;;;;;;5.90;1.90;;;17.40;28.20;;;;;;4877633;29;20067;-85
2021/04/05 12:17:21;;;;;;;6.85;2.50;;;17.50;28.00;;;;;;4880729;29;20040;-85
2021/04/05 12:19:49;;;;;;;7.15;2.38;;;17.60;28.20;;;;;;4881446;29;20494;-84
2021/04/05 12:22:15;;;;;;;5.47;2.38;;;17.60;28.20;;;;;;4875794;29;20077;-84
2021/04/05 12:24:46;;;;;;;8.10;2.15;;;17.70;28.30;;;;;;4880852;29;20021;-84
2021/04/05 12:27:13;;;;;;;4.88;1.20;;;17.80;28.50;;;;;;4897619;29;20108;-84
2021/04/05 12:29:42;;;;;;;5.70;1.23;;;17.90;28.60;;;;;;4880587;29;20041;-84
2021/04/05 12:32:15;;;;;;;5.82;1.33;;;18.00;28.40;;;;;;4891973;29;20139;-84
2021/04/05 12:34:40;;;;;;;;;;;18.00;28.30;;;;;;4894000;29;20032;-84
2021/04/05 12:37:17;;;;;;;6.70;1.65;;;18.10;28.60;;;;;;4897718;29;19947;-84
2021/04/05 12:39:45;;;;;;;2.70;1.20;;;18.20;28.90;;;;;;4880258;29;20143;-84
2021/04/05 12:42:37;;;;;;;2.97;1.23;;;18.40;29.00;;;;;;4896487;29;20029;-84
2021/04/05 12:45:08;;;;;;;3.33;1.33;;;18.60;28.70;;;;;;4877037;29;20378;-84
2021/04/05 12:47:36;;;;;;;7.97;1.40;;;18.70;28.70;;;;;;4892424;29;20397;-84
2021/04/05 12:50:08;;;;;;;5.45;1.42;;;18.80;28.70;;;;;;4895699;29;20028;-84
2021/04/05 12:52:39;;;;;;;5.07;1.88;;;18.90;28.20;;;;;;4879964;29;20477;-84
2021/04/05 12:55:11;;;;;;;6.72;1.42;;;18.90;28.50;;;;;;4892438;29;20104;-84
2021/04/05 12:57:37;;;;;;;3.38;1.17;;;19.00;28.70;;;;;;4892342;29;20390;-84
2021/04/05 13:00:13;;;;;;;3.10;1.20;;;19.00;28.80;;;;;;4893822;29;20035;-84
2021/04/05 13:02:39;;;;;;;5.95;1.45;;;19.00;28.90;;;;;;4875615;29;20081;-84
2021/04/05 13:05:18;;;;;;;2.78;1.10;;;19.00;28.90;;;;;;4894510;29;20061;-84
2021/04/05 13:07:59;;;;;;;2.70;1.20;;;19.10;28.80;;;;;;4875540;29;20028;-84
2021/04/05 13:10:29;;;;;;;3.92;1.88;;;19.20;28.90;;;;;;4895533;29;20481;-85
2021/04/05 13:12:59;;;;;;;4.80;1.50;;;19.20;29.10;;;;;;4896498;29;20037;-85
2021/04/05 13:15:33;;;;;;;4.15;1.52;;;19.10;29.20;;;;;;4881308;29;20131;-84
2021/04/05 13:18:09;;;;;;;5.10;1.23;;;19.20;29.30;;;;;;4879432;29;20028;-84
2021/04/05 13:20:39;;;;;;;6.07;1.92;;;19.20;29.40;;;;;;4896002;29;20520;-85
2021/04/05 13:23:06;;;;;;;5.88;1.75;;;19.10;29.50;;;;;;4880051;29;20063;-85
2021/04/05 13:25:39;;;;;;;5.25;1.42;;;19.10;29.70;;;;;;4876005;29;20029;-85
2021/04/05 13:28:07;;;;;;;3.63;1.33;;;19.20;29.80;;;;;;4883953;29;20032;-85
2021/04/05 13:30:36;;;;;;;6.32;1.13;;;19.20;29.70;;;;;;4898036;29;20024;-85